• Join FlightAware (Why Join?)
  • Login
  • US Flag 
02:11AM EDT


 

Airport Tracker/Info


-or-


 

Live Flight TrackerFlight Track Log ✈ CES2378 ✈ 06-May-2013 ✈ ZUJZ / JZH - ZLXY / XIY

Flight Track Log - Related Links

Times and Time Zones

All times are in EDT time to prevent confusion due to time zone crossing. See the CES2378 flight status page for this flight to view local times or setup timezone preferences in your user account.

Time Position Orientation Groundspeed Altitude Reporting Facility
EDT Latitude Longitude Course Direction KTS MPH feet Rate Location/Type
09:59PM 33.1459 104.5440 68° East  Level Estimated
10:00PM 33.1745 104.6304 68° East  Level Estimated
10:01PM 33.2030 104.7169 68° East  Level Estimated
10:02PM 33.2315 104.8034 69° East  Level Estimated
10:03PM 33.2598 104.8900 69° East  Level Estimated
10:04PM 33.2882 104.9766 69° East  Level Estimated
10:05PM 33.3164 105.0633 69° East  Level Estimated
10:06PM 33.3447 105.1500 69° East  Level Estimated
10:07PM 33.3728 105.2368 69° East  Level Estimated
10:08PM 33.4009 105.3237 69° East  Level Estimated
10:09PM 33.4289 105.4106 69° East  Level Estimated
10:10PM 33.4569 105.4976 69° East  Level Estimated
10:11PM 33.4848 105.5846 69° East  Level Estimated
10:12PM 33.5126 105.6717 69° East  Level Estimated
10:13PM 33.5404 105.7588 69° East  Level Estimated
10:14PM 33.5681 105.8460 69° East  Level Estimated
10:15PM 33.5958 105.9333 69° East  Level Estimated
10:16PM 33.6234 106.0206 69° East  Level Estimated
10:17PM 33.6509 106.1079 69° East  Level Estimated
10:18PM 33.6784 106.1953 69° East  Level Estimated
10:19PM 33.7058 106.2828 69° East  Level Estimated
10:20PM 33.7332 106.3703 69° East  Level Estimated
10:21PM 33.7604 106.4579 69° East  Level Estimated
10:22PM 33.7877 106.5456 69° East  Level Estimated
10:23PM 33.8148 106.6333 70° East  Level Estimated
10:24PM 33.8419 106.7210 70° East  Level Estimated
10:25PM 33.8690 106.8088 70° East  Level Estimated
10:26PM 33.8960 106.8967 70° East  Level Estimated
10:27PM 33.9229 106.9846 70° East  Level Estimated
10:28PM 33.9497 107.0726 70° East  Level Estimated
10:29PM 33.9765 107.1606 70° East  Level Estimated
10:30PM 34.0033 107.2487 70° East  Level Estimated
10:31PM 34.0299 107.3368 70° East  Level Estimated
10:32PM 34.0565 107.4250 70° East  Level Estimated
10:33PM 34.0831 107.5133 70° East  Level Estimated
10:34PM 34.1096 107.6016 70° East  Level Estimated
10:35PM 34.1360 107.6899 70° East  Level Estimated
10:36PM 34.1623 107.7784 70° East  Level Estimated
10:37PM 34.1886 107.8668 70° East  Level Estimated
10:38PM 34.2148 107.9554 70° East  Level Estimated
10:39PM 34.2410 108.0440 70° East  Level Estimated
10:40PM 34.2671 108.1326 70° East  Level Estimated
10:41PM 34.2931 108.2213 70° East  Level Estimated
10:42PM 34.3191 108.3100 70° East  Level Estimated
10:43PM 34.3450 108.3988 71° East  Level Estimated
10:44PM 34.3708 108.4877 71° East  Level Estimated
10:45PM 34.3966 108.5766 71° East  Level Estimated
10:46PM 34.4223 108.6656 71° East  Level Estimated
10:47PM 34.4471 108.7516 71° East  Level Estimated
10:48PM 34.4471 108.7516 121° Southeast  Level Estimated
10:49PM 34.4471 108.7516 121° Southeast  Level Estimated
10:50PM 34.4471 108.7516 121° Southeast  Level Estimated
10:51PM 34.4471 108.7516 121° Southeast  Level Estimated
10:52PM 34.4471 108.7516 121° Southeast  Level Estimated
10:53PM 34.4471 108.7516 121° Southeast  Level Estimated
10:54PM 34.4471 108.7516 121° Southeast  Level Estimated
10:55PM 34.4471 108.7516 121° Southeast  Level Estimated
10:56PM 34.4471 108.7516 121° Southeast  Level Estimated
10:57PM 34.4471 108.7516 121° Southeast  Level Estimated
10:58PM 34.4471 108.7516 121° Southeast  Level Estimated
10:59PM 34.4471 108.7516 121° Southeast  Level Estimated
11:00PM 34.4471 108.7516 121° Southeast  Level Estimated
11:01PM 34.4471 108.7516 121° Southeast  Level Estimated